createdAt,value
2018-09-17T00:01:55.867Z,70.41
2018-09-17T00:04:24.624Z,70.98
2018-09-17T00:06:53.259Z,70.95
2018-09-17T00:09:21.878Z,70.79
2018-09-17T00:11:50.495Z,70.63
2018-09-17T00:14:19.150Z,71.76
2018-09-17T00:16:47.887Z,71.63
2018-09-17T00:19:16.512Z,72.00
2018-09-17T00:21:45.147Z,72.49
2018-09-17T00:24:13.766Z,73.02
2018-09-17T00:26:42.378Z,72.59
2018-09-17T00:29:11.026Z,72.27
2018-09-17T00:31:40.129Z,71.75
2018-09-17T00:34:08.804Z,71.70
2018-09-17T00:36:37.455Z,72.70
2018-09-17T00:39:08.835Z,72.67
2018-09-17T00:41:37.546Z,72.01
2018-09-17T00:44:06.140Z,72.50
2018-09-17T00:46:34.809Z,72.59
2018-09-17T00:49:03.431Z,73.36
2018-09-17T00:51:32.189Z,72.80
2018-09-17T00:54:00.827Z,72.85
2018-09-17T00:56:29.733Z,72.56
2018-09-17T00:58:58.355Z,72.67
2018-09-17T01:01:26.982Z,72.14
2018-09-17T01:03:55.745Z,72.94
2018-09-17T01:06:24.450Z,72.88
2018-09-17T01:08:53.075Z,72.90
2018-09-17T01:11:21.802Z,72.80
2018-09-17T01:13:50.479Z,73.09
2018-09-17T01:16:19.107Z,72.86
2018-09-17T01:18:48.347Z,72.64
2018-09-17T01:21:17.005Z,72.59
2018-09-17T01:23:45.683Z,73.01
2018-09-17T01:26:14.311Z,72.82
2018-09-17T01:28:42.998Z,72.78
2018-09-17T01:31:11.604Z,73.17
2018-09-17T01:33:40.232Z,72.83
2018-09-17T01:36:08.871Z,72.95
2018-09-17T01:38:37.542Z,72.88
2018-09-17T01:41:06.229Z,73.51
2018-09-17T01:43:34.900Z,73.52
2018-09-17T01:46:03.584Z,72.96
2018-09-17T01:48:32.247Z,73.14
2018-09-17T01:51:00.889Z,73.52
2018-09-17T01:53:29.503Z,73.73
2018-09-17T01:55:58.131Z,73.15
2018-09-17T01:58:26.750Z,73.19
2018-09-17T02:00:55.488Z,73.48
2018-09-17T02:03:24.107Z,73.47
2018-09-17T02:05:52.758Z,72.94
2018-09-17T02:08:21.446Z,72.96
2018-09-17T02:10:50.071Z,73.16
2018-09-17T02:13:18.952Z,73.24
2018-09-17T02:15:47.568Z,73.33
2018-09-17T02:18:16.199Z,73.30
2018-09-17T02:20:44.847Z,73.52
2018-09-17T02:23:13.531Z,73.64
2018-09-17T02:25:43.960Z,74.07
2018-09-17T02:28:12.575Z,73.74
2018-09-17T02:30:41.191Z,74.60
2018-09-17T02:33:09.850Z,74.35
2018-09-17T02:35:38.617Z,74.49
2018-09-17T02:38:07.333Z,74.67
2018-09-17T02:40:35.935Z,74.24
2018-09-17T02:43:04.636Z,74.95
2018-09-17T02:45:33.388Z,74.52
2018-09-17T02:48:02.066Z,74.11
2018-09-17T02:50:30.724Z,74.23
2018-09-17T02:52:59.356Z,73.30
2018-09-17T02:55:27.981Z,72.70
2018-09-17T02:57:56.587Z,72.72
2018-09-17T03:00:25.241Z,72.62
2018-09-17T03:02:54.092Z,73.58
2018-09-17T03:05:23.600Z,73.70
2018-09-17T03:07:52.217Z,74.31
2018-09-17T03:10:20.843Z,74.21
2018-09-17T03:12:49.491Z,74.33
2018-09-17T03:15:29.475Z,74.01
2018-09-17T03:17:58.125Z,74.20
2018-09-17T03:20:26.755Z,73.50
2018-09-17T03:22:55.394Z,73.49
2018-09-17T03:25:24.024Z,73.69
2018-09-17T03:27:52.651Z,74.28
2018-09-17T03:30:21.326Z,73.54
2018-09-17T03:32:49.954Z,73.35
2018-09-17T03:35:18.620Z,73.56
2018-09-17T03:37:47.282Z,74.22
2018-09-17T03:40:15.967Z,74.43
2018-09-17T03:42:44.605Z,74.39
2018-09-17T03:45:13.437Z,74.20
2018-09-17T03:47:42.139Z,74.14
2018-09-17T03:50:10.808Z,74.27
2018-09-17T03:52:39.426Z,75.65
2018-09-17T03:55:08.063Z,74.54
2018-09-17T03:57:36.744Z,74.02
2018-09-17T04:00:05.424Z,74.27
2018-09-17T04:02:34.060Z,74.05
2018-09-17T04:05:02.692Z,74.20
2018-09-17T04:07:31.366Z,75.22
2018-09-17T04:09:59.979Z,73.65
2018-09-17T04:12:28.634Z,73.13
2018-09-17T04:14:57.285Z,74.18
2018-09-17T04:17:25.923Z,73.84
2018-09-17T04:19:54.601Z,74.08
2018-09-17T04:22:23.210Z,73.33
2018-09-17T04:24:51.859Z,74.35
2018-09-17T04:27:20.497Z,74.20
2018-09-17T04:29:49.137Z,74.56
2018-09-17T04:32:17.791Z,74.68
2018-09-17T04:34:46.504Z,74.89
2018-09-17T04:37:15.803Z,74.75
2018-09-17T04:39:44.483Z,74.90
2018-09-17T04:42:13.107Z,75.53
2018-09-17T04:44:41.968Z,75.63
2018-09-17T04:47:10.563Z,77.82
2018-09-17T04:49:39.294Z,76.42
2018-09-17T04:52:08.067Z,76.36
2018-09-17T04:54:36.790Z,76.38
2018-09-17T04:57:05.462Z,75.34
2018-09-17T04:59:34.127Z,75.26
2018-09-17T05:02:03.095Z,75.09
2018-09-17T05:04:31.737Z,75.36
2018-09-17T05:07:00.391Z,75.59
2018-09-17T05:09:29.112Z,74.96
2018-09-17T05:11:57.822Z,75.32
2018-09-17T05:14:26.540Z,74.72
2018-09-17T05:16:55.369Z,74.97
2018-09-17T05:19:25.505Z,74.97
2018-09-17T05:21:54.338Z,75.23
2018-09-17T05:24:22.947Z,74.69
2018-09-17T05:26:51.666Z,74.76
2018-09-17T05:29:20.360Z,74.51
2018-09-17T05:31:49.006Z,73.66
2018-09-17T05:34:17.692Z,73.59
2018-09-17T05:36:46.431Z,73.21
2018-09-17T05:39:15.055Z,72.85
2018-09-17T05:41:43.728Z,72.81
2018-09-17T05:44:12.420Z,72.30
2018-09-17T05:46:41.126Z,72.60
2018-09-17T05:49:09.839Z,71.86
2018-09-17T05:51:38.505Z,71.16
2018-09-17T05:54:07.149Z,70.66
2018-09-17T05:56:35.804Z,70.49
2018-09-17T05:59:04.426Z,70.52
2018-09-17T06:01:33.044Z,70.09
2018-09-17T06:04:01.683Z,69.99
2018-09-17T06:06:30.335Z,70.11
2018-09-17T06:08:58.977Z,69.92
2018-09-17T06:11:27.647Z,70.42
2018-09-17T06:13:56.316Z,70.10
2018-09-17T06:16:25.029Z,70.53
2018-09-17T06:18:53.795Z,70.34
2018-09-17T06:21:22.444Z,70.18
2018-09-17T06:23:51.111Z,70.24
2018-09-17T06:26:19.727Z,70.61
2018-09-17T06:28:49.012Z,70.75
2018-09-17T06:31:17.604Z,70.56
2018-09-17T06:33:46.291Z,71.29
2018-09-17T06:36:15.018Z,71.53
2018-09-17T06:38:43.725Z,71.53
2018-09-17T06:41:12.586Z,70.91
2018-09-17T06:43:41.472Z,70.77
2018-09-17T06:46:10.649Z,70.70
2018-09-17T06:48:39.324Z,70.71
2018-09-17T06:51:07.967Z,70.94
2018-09-17T06:53:36.741Z,70.76
2018-09-17T06:56:05.455Z,70.43
2018-09-17T06:58:34.111Z,70.05
2018-09-17T07:01:02.751Z,70.01
2018-09-17T07:03:31.426Z,69.23
2018-09-17T07:06:00.094Z,69.05
2018-09-17T07:08:28.880Z,68.35
2018-09-17T07:10:57.565Z,67.91
2018-09-17T07:13:26.203Z,67.87
2018-09-17T07:15:54.866Z,67.38
2018-09-17T07:18:23.519Z,66.64
2018-09-17T07:20:52.200Z,65.65
2018-09-17T07:23:20.833Z,65.02
2018-09-17T07:25:49.494Z,64.13
2018-09-17T07:28:18.148Z,63.38
2018-09-17T07:30:46.789Z,62.45
2018-09-17T07:33:15.809Z,61.73
2018-09-17T07:35:44.455Z,60.77
2018-09-17T07:38:13.108Z,60.54
2018-09-17T07:40:41.743Z,59.65
2018-09-17T07:43:10.363Z,59.30
2018-09-17T07:45:39.040Z,59.78
2018-09-17T07:48:07.731Z,58.48
2018-09-17T07:50:36.421Z,58.03
2018-09-17T07:53:05.251Z,57.16
2018-09-17T07:55:33.824Z,57.67
2018-09-17T07:58:02.531Z,56.86
2018-09-17T08:00:31.191Z,56.90
2018-09-17T08:02:59.892Z,56.48
2018-09-17T08:05:28.570Z,56.44
2018-09-17T08:07:57.203Z,54.91
2018-09-17T08:10:26.397Z,53.60
2018-09-17T08:12:55.103Z,53.09
2018-09-17T08:15:23.768Z,51.93
2018-09-17T08:17:53.332Z,50.37
2018-09-17T08:20:21.961Z,49.52
2018-09-17T08:22:50.934Z,49.18
2018-09-17T08:27:54.425Z,49.10
2018-09-17T08:30:23.108Z,47.99
2018-09-17T08:32:51.819Z,47.81
2018-09-17T08:35:20.533Z,47.60
2018-09-17T08:37:49.779Z,46.81
2018-09-17T08:40:18.507Z,46.40
2018-09-17T08:42:47.168Z,47.13
2018-09-17T08:45:15.841Z,47.10
2018-09-17T08:47:44.535Z,46.17
2018-09-17T08:50:13.300Z,46.16
2018-09-17T08:52:42.044Z,45.57
2018-09-17T08:55:14.967Z,47.39
2018-09-17T08:57:49.180Z,45.76
2018-09-17T09:00:18.790Z,46.26
2018-09-17T09:04:58.042Z,45.47
2018-09-17T09:07:35.785Z,43.86
2018-09-17T09:10:10.705Z,44.97
2018-09-17T09:12:39.903Z,45.21
2018-09-17T09:15:14.049Z,43.46
2018-09-17T09:17:42.782Z,41.76
2018-09-17T09:20:11.404Z,42.34
2018-09-17T09:22:41.015Z,41.15
2018-09-17T09:25:09.764Z,40.92
2018-09-17T09:27:38.430Z,40.37
2018-09-17T09:30:07.100Z,39.23
2018-09-17T09:32:35.724Z,40.10
2018-09-17T09:35:04.465Z,38.78
2018-09-17T09:37:33.280Z,37.61
2018-09-17T09:40:01.945Z,38.16
2018-09-17T09:42:30.620Z,38.21
2018-09-17T09:44:59.256Z,37.06
2018-09-17T09:47:28.015Z,36.83
2018-09-17T09:49:56.987Z,36.63
2018-09-17T09:52:25.859Z,37.63
2018-09-17T09:54:54.533Z,36.95
2018-09-17T09:57:23.179Z,36.17
2018-09-17T09:59:51.823Z,35.57
2018-09-17T10:02:25.877Z,35.82
2018-09-17T10:04:54.739Z,34.94
2018-09-17T10:07:23.382Z,38.21
2018-09-17T10:09:57.555Z,37.29
2018-09-17T10:12:31.636Z,35.71
2018-09-17T10:17:12.478Z,36.84
2018-09-17T10:19:46.470Z,36.85
2018-09-17T10:22:15.262Z,36.45
2018-09-17T10:24:43.967Z,35.42
2018-09-17T10:27:12.930Z,34.37
2018-09-17T10:29:41.579Z,33.66
2018-09-17T10:32:10.248Z,32.84
2018-09-17T10:34:38.921Z,33.70
2018-09-17T10:37:07.628Z,33.75
2018-09-17T10:39:36.296Z,34.87
2018-09-17T10:42:04.926Z,35.22
2018-09-17T10:44:33.571Z,33.68
2018-09-17T10:47:02.304Z,33.72
2018-09-17T10:49:30.866Z,33.96
2018-09-17T10:51:59.719Z,34.51
2018-09-17T10:54:28.511Z,33.99
2018-09-17T10:56:57.362Z,34.20
2018-09-17T10:59:26.110Z,35.71
2018-09-17T11:01:54.720Z,34.41
2018-09-17T11:04:23.352Z,33.94
2018-09-17T11:06:52.029Z,35.07
2018-09-17T11:09:20.768Z,34.33
2018-09-17T11:11:49.411Z,35.32
2018-09-17T11:14:18.082Z,35.38
2018-09-17T11:16:46.747Z,34.38
2018-09-17T11:19:15.389Z,36.10
2018-09-17T11:21:44.044Z,35.03
2018-09-17T11:24:12.655Z,35.62
2018-09-17T11:26:41.298Z,35.68
2018-09-17T11:29:09.912Z,35.92
2018-09-17T11:31:38.531Z,34.88
2018-09-17T11:34:07.148Z,34.00
2018-09-17T11:36:35.826Z,34.77
2018-09-17T11:39:06.454Z,35.70
2018-09-17T11:41:35.204Z,36.00
2018-09-17T11:44:03.853Z,35.19
2018-09-17T11:46:32.458Z,35.16
2018-09-17T11:49:01.199Z,34.24
2018-09-17T11:51:29.871Z,33.84
2018-09-17T11:53:58.656Z,33.59
2018-09-17T11:56:27.285Z,32.66
2018-09-17T11:58:55.985Z,34.29
2018-09-17T12:01:30.007Z,34.04
2018-09-17T12:04:04.078Z,33.33
2018-09-17T12:07:36.548Z,32.75
2018-09-17T12:10:05.212Z,35.03
2018-09-17T12:12:34.052Z,34.73
2018-09-17T12:15:02.771Z,33.63
2018-09-17T12:17:31.539Z,33.51
2018-09-17T12:20:00.276Z,34.07
2018-09-17T12:22:29.159Z,33.52
2018-09-17T12:24:58.028Z,34.00
2018-09-17T12:27:26.701Z,34.49
2018-09-17T12:29:55.372Z,33.75
2018-09-17T12:32:24.192Z,33.59
2018-09-17T12:34:52.911Z,32.93
2018-09-17T12:37:21.996Z,32.78
2018-09-17T12:39:51.313Z,32.94
2018-09-17T12:42:20.037Z,32.32
2018-09-17T12:44:49.647Z,33.01
2018-09-17T12:47:18.370Z,32.35
2018-09-17T12:49:46.979Z,32.26
2018-09-17T12:52:15.643Z,34.34
2018-09-17T12:54:44.412Z,32.74
2018-09-17T12:57:13.111Z,32.93
2018-09-17T12:59:42.375Z,32.52
2018-09-17T13:02:11.502Z,32.79
2018-09-17T13:04:40.615Z,32.24
2018-09-17T13:07:09.235Z,32.00
2018-09-17T13:09:37.990Z,32.29
2018-09-17T13:12:06.709Z,31.49
2018-09-17T13:14:35.503Z,31.58
2018-09-17T13:17:04.293Z,31.42
2018-09-17T13:19:33.064Z,31.12
2018-09-17T13:22:01.717Z,29.92
2018-09-17T13:24:30.537Z,30.41
2018-09-17T13:27:00.322Z,30.77
2018-09-17T13:29:29.085Z,31.01
2018-09-17T13:31:57.827Z,31.93
2018-09-17T13:34:26.475Z,30.40
2018-09-17T13:36:55.314Z,30.51
2018-09-17T13:39:23.983Z,30.80
2018-09-17T13:41:52.770Z,30.65
2018-09-17T13:44:21.546Z,31.41
2018-09-17T13:46:50.117Z,30.75
2018-09-17T13:49:18.827Z,30.55
2018-09-17T13:51:47.457Z,30.93
2018-09-17T13:54:16.138Z,30.82
2018-09-17T13:56:44.746Z,31.44
2018-09-17T13:59:13.464Z,32.18
2018-09-17T14:01:42.614Z,32.87
2018-09-17T14:04:11.366Z,32.23
2018-09-17T14:06:39.919Z,32.12
2018-09-17T14:09:10.051Z,32.30
2018-09-17T14:11:39.133Z,32.77
2018-09-17T14:14:08.288Z,33.07
2018-09-17T14:16:37.002Z,33.00
2018-09-17T14:19:05.642Z,32.75
2018-09-17T14:21:34.266Z,34.25
2018-09-17T14:24:02.906Z,33.22
2018-09-17T14:26:31.659Z,33.49
2018-09-17T14:29:00.350Z,33.37
2018-09-17T14:31:34.572Z,31.85
2018-09-17T14:34:03.205Z,32.59
2018-09-17T14:36:32.664Z,31.98
2018-09-17T14:39:01.343Z,32.62
2018-09-17T14:41:30.015Z,33.02
2018-09-17T14:44:08.046Z,32.58
2018-09-17T14:46:39.141Z,33.06
2018-09-17T14:49:08.359Z,33.25
2018-09-17T14:51:37.198Z,33.02
2018-09-17T14:54:05.939Z,33.14
2018-09-17T14:56:34.871Z,33.37
2018-09-17T14:59:03.627Z,33.50
2018-09-17T15:01:32.263Z,34.10
2018-09-17T15:04:01.120Z,33.52
2018-09-17T15:06:29.901Z,33.76
2018-09-17T15:08:58.552Z,33.43
2018-09-17T15:11:27.298Z,33.80
2018-09-17T15:13:56.673Z,34.23
2018-09-17T15:16:26.581Z,34.12
2018-09-17T15:18:56.127Z,34.49
2018-09-17T15:21:24.820Z,34.77
2018-09-17T15:23:54.618Z,34.74
2018-09-17T15:26:23.515Z,34.58
2018-09-17T15:28:53.269Z,35.26
2018-09-17T15:31:23.713Z,35.16
2018-09-17T15:33:52.327Z,35.78
2018-09-17T15:36:21.069Z,36.13
2018-09-17T15:38:49.723Z,36.13
2018-09-17T15:41:18.407Z,36.19
2018-09-17T15:43:47.020Z,36.35
2018-09-17T15:46:15.829Z,36.16
2018-09-17T15:48:44.413Z,36.64
2018-09-17T15:51:13.054Z,36.90
2018-09-17T15:53:41.663Z,36.72
2018-09-17T15:56:10.391Z,36.75
2018-09-17T15:58:38.987Z,36.94
2018-09-17T16:01:08.186Z,37.08
2018-09-17T16:03:36.851Z,37.58
2018-09-17T16:06:05.471Z,37.67
2018-09-17T16:08:34.188Z,37.49
2018-09-17T16:11:03.817Z,37.58
2018-09-17T16:13:32.519Z,37.77
2018-09-17T16:16:01.421Z,37.73
2018-09-17T16:18:30.120Z,38.47
2018-09-17T16:20:58.790Z,38.14
2018-09-17T16:23:27.483Z,38.29
2018-09-17T16:25:56.117Z,38.38
2018-09-17T16:28:25.291Z,38.48
2018-09-17T16:30:53.960Z,38.66
2018-09-17T16:33:22.604Z,38.72
2018-09-17T16:35:51.348Z,39.13
2018-09-17T16:38:20.369Z,39.61
2018-09-17T16:40:49.311Z,40.15
2018-09-17T16:43:18.011Z,39.41
2018-09-17T16:45:46.748Z,40.44
2018-09-17T16:48:16.015Z,41.74
2018-09-17T16:50:45.427Z,42.59
2018-09-17T16:53:15.687Z,43.12
2018-09-17T16:55:44.335Z,45.23
2018-09-17T16:58:13.370Z,47.35
2018-09-17T17:00:42.535Z,47.85
2018-09-17T17:03:11.267Z,48.46
2018-09-17T17:05:40.099Z,48.52
2018-09-17T17:08:08.756Z,49.25
2018-09-17T17:10:37.426Z,49.92
2018-09-17T17:13:06.052Z,50.19
2018-09-17T17:15:34.793Z,50.17
2018-09-17T17:18:03.505Z,50.84
2018-09-17T17:20:32.155Z,51.67
2018-09-17T17:23:00.852Z,51.77
2018-09-17T17:25:29.508Z,52.28
2018-09-17T17:27:58.771Z,52.57
2018-09-17T17:30:27.469Z,52.86
2018-09-17T17:32:56.724Z,53.25
2018-09-17T17:35:25.311Z,53.15
2018-09-17T17:37:54.003Z,54.23
2018-09-17T17:40:22.792Z,54.93
2018-09-17T17:42:51.380Z,54.78
2018-09-17T17:45:20.159Z,54.18
2018-09-17T17:47:48.875Z,54.08
2018-09-17T17:50:17.558Z,54.45
2018-09-17T17:52:47.747Z,54.08
2018-09-17T17:55:16.381Z,54.04
2018-09-17T17:57:45.021Z,55.02
2018-09-17T18:00:13.719Z,55.60
2018-09-17T18:02:42.410Z,55.57
2018-09-17T18:05:11.359Z,55.47
2018-09-17T18:07:40.400Z,56.69
2018-09-17T18:10:10.045Z,56.95
2018-09-17T18:12:39.147Z,57.16
2018-09-17T18:15:08.327Z,56.83
2018-09-17T18:17:37.831Z,56.27
2018-09-17T18:20:07.425Z,57.22
2018-09-17T18:22:36.292Z,57.81
2018-09-17T18:25:04.938Z,57.84
2018-09-17T18:27:33.581Z,57.88
2018-09-17T18:30:02.358Z,57.77
2018-09-17T18:32:31.164Z,58.12
2018-09-17T18:34:59.783Z,58.72
2018-09-17T18:37:28.624Z,58.80
2018-09-17T18:39:58.595Z,59.18
2018-09-17T18:42:27.303Z,59.38
2018-09-17T18:44:56.055Z,59.12
2018-09-17T18:47:25.091Z,59.05
2018-09-17T18:49:53.803Z,59.35
2018-09-17T18:52:22.699Z,60.10
2018-09-17T18:54:51.656Z,59.83
2018-09-17T18:57:20.605Z,60.96
2018-09-17T18:59:49.218Z,61.84
2018-09-17T19:02:18.682Z,61.07
2018-09-17T19:04:47.323Z,60.62
2018-09-17T19:07:15.979Z,61.23
2018-09-17T19:09:49.227Z,61.36
2018-09-17T19:12:19.215Z,61.39
2018-09-17T19:14:53.174Z,61.66
2018-09-17T19:17:27.346Z,62.99
2018-09-17T19:19:56.262Z,63.10
2018-09-17T19:22:30.212Z,62.87
2018-09-17T19:24:58.839Z,63.53
2018-09-17T19:27:32.843Z,62.79
2018-09-17T19:30:01.824Z,63.08
2018-09-17T19:32:33.612Z,63.13
2018-09-17T19:35:02.487Z,62.96
2018-09-17T19:37:37.895Z,63.29
2018-09-17T19:40:10.690Z,63.76
2018-09-17T19:42:39.412Z,64.14
2018-09-17T19:45:13.791Z,63.63
2018-09-17T19:47:42.589Z,64.15
2018-09-17T19:50:17.998Z,64.36
2018-09-17T19:52:46.960Z,64.36
2018-09-17T19:55:15.720Z,65.17
2018-09-17T19:57:49.730Z,65.38
2018-09-17T20:00:18.623Z,65.09
2018-09-17T20:02:48.849Z,65.05
2018-09-17T20:05:24.221Z,66.35
2018-09-17T20:07:54.558Z,66.35
2018-09-17T20:10:24.820Z,66.63
2018-09-17T20:12:55.397Z,66.85
2018-09-17T20:15:25.642Z,67.49
2018-09-17T20:17:55.817Z,68.73
2018-09-17T20:20:25.149Z,68.68
2018-09-17T20:22:53.760Z,68.47
2018-09-17T20:25:22.667Z,68.29
2018-09-17T20:27:51.299Z,69.14
2018-09-17T20:30:21.189Z,69.65
2018-09-17T20:32:50.160Z,69.31
2018-09-17T20:35:18.812Z,68.95
2018-09-17T20:37:48.193Z,69.08
2018-09-17T20:40:16.837Z,68.78
2018-09-17T20:42:45.640Z,67.82
2018-09-17T20:45:14.282Z,67.66
2018-09-17T20:47:43.727Z,67.28
2018-09-17T20:50:12.451Z,67.41
2018-09-17T20:52:42.211Z,67.77
2018-09-17T20:55:10.904Z,67.90
2018-09-17T20:57:39.517Z,67.95
2018-09-17T21:00:08.198Z,68.53
2018-09-17T21:02:37.656Z,67.87
2018-09-17T21:05:06.835Z,68.23
2018-09-17T21:07:35.507Z,68.08
2018-09-17T21:10:05.547Z,68.40
2018-09-17T21:12:36.050Z,68.24
2018-09-17T21:15:04.895Z,67.83
2018-09-17T21:17:33.527Z,68.28
2018-09-17T21:20:02.252Z,69.15
2018-09-17T21:22:30.924Z,69.63
2018-09-17T21:24:59.661Z,69.05
2018-09-17T21:27:28.413Z,68.89
2018-09-17T21:29:57.131Z,68.40
2018-09-17T21:35:00.713Z,69.70
2018-09-17T21:37:30.175Z,69.54
2018-09-17T21:39:58.795Z,69.79
2018-09-17T21:42:27.485Z,70.02
2018-09-17T21:44:56.161Z,69.50
2018-09-17T21:47:25.192Z,69.65
2018-09-17T21:49:53.879Z,69.76
2018-09-17T21:52:22.609Z,70.34
2018-09-17T21:54:51.201Z,70.39
2018-09-17T21:57:19.902Z,70.28
2018-09-17T21:59:48.890Z,70.01
2018-09-17T22:02:17.553Z,70.07
2018-09-17T22:04:46.247Z,69.98
2018-09-17T22:07:14.885Z,70.10
2018-09-17T22:09:43.511Z,70.21
2018-09-17T22:12:12.231Z,69.79
2018-09-17T22:14:41.716Z,69.87
2018-09-17T22:17:10.440Z,70.19
2018-09-17T22:19:39.174Z,70.53
2018-09-17T22:22:07.853Z,71.21
2018-09-17T22:24:36.491Z,71.07
2018-09-17T22:27:05.107Z,71.24
2018-09-17T22:29:33.749Z,71.28
2018-09-17T22:32:02.452Z,70.88
2018-09-17T22:34:31.118Z,70.63
2018-09-17T22:36:59.769Z,71.08
2018-09-17T22:39:28.440Z,71.58
2018-09-17T22:41:57.109Z,71.35
2018-09-17T22:44:26.276Z,71.96
2018-09-17T22:46:55.232Z,72.30
2018-09-17T22:49:23.887Z,72.54
2018-09-17T22:51:52.672Z,72.17
2018-09-17T22:54:21.591Z,72.30
2018-09-17T22:56:50.227Z,72.54
2018-09-17T22:59:18.880Z,72.56
2018-09-17T23:01:47.588Z,72.99
2018-09-17T23:04:16.219Z,72.78
2018-09-17T23:06:44.824Z,72.84
2018-09-17T23:09:13.466Z,72.91
2018-09-17T23:11:42.094Z,73.00
2018-09-17T23:14:10.747Z,73.07
2018-09-17T23:16:39.405Z,73.40
2018-09-17T23:19:08.084Z,72.79
2018-09-17T23:21:36.749Z,72.58
2018-09-17T23:24:05.350Z,72.40
2018-09-17T23:26:34.340Z,72.24
2018-09-17T23:29:02.988Z,72.00
2018-09-17T23:31:31.615Z,72.11
2018-09-17T23:34:00.238Z,72.33
2018-09-17T23:36:28.896Z,72.34
2018-09-17T23:38:57.540Z,72.77
2018-09-17T23:41:26.202Z,72.79
2018-09-17T23:43:55.121Z,72.82
2018-09-17T23:46:23.778Z,72.79
2018-09-17T23:48:52.358Z,72.98
2018-09-17T23:51:21.003Z,72.69
2018-09-17T23:53:49.644Z,73.26
2018-09-17T23:56:18.295Z,72.96
2018-09-17T23:58:46.941Z,73.30
